フォルタレザ の空港の天気 - METARとTAF

フォルタレザ/ピント・マーティンズ国際空港 ( SBFZ / FOR ) - ブラジル セアラー州フォルタレザ
飛行場実況気象(Metar)
観測時間05/25 21:00 BRT (05/26 00:00 UTC)
風向・風速南東 1m/s
視程10km以上
天気現象
なし
気温27℃
湿度84%
気圧1014hPa
METARSBFZ 260000Z 13002KT CAVOK 27/24 Q1014
過去の天気等 Google飛行場航空写真 Wunderground天気予報

過去48時間のMETAR

飛行場予報(TAF)
発表時間: 5/25 18:00 BRT (5/25 21:00 UTC)
予報対象時間: 25日21時 BRT ~ 26日21時 BRT
風向・風速東 4m/s
視程10km以上
少しの雲 雲底高度 760m
25日21時 BRT ~ 25日23時 BRT に徐々に
風向・風速南南東 3m/s
少しの雲 雲底高度 550m
26日3時 BRT ~ 26日7時 BRT に一時的に
視程4000m
天気現象弱い雨
全天の8割程度の雲 雲底高度 300m
26日10時 BRT ~ 26日12時 BRT に徐々に
風向・風速東 4m/s
全天の4割程度の雲 雲底高度 700m
26日13時 BRT ~ 26日15時 BRT に徐々に
風向・風速東 4m/s
少しの雲 雲底高度 760m
TAF COR SBFZ 252100Z 2600/2624 08007KT 9999 FEW025 TN25/2606Z TX31/2617Z
BECMG 2600/2602 15005KT FEW018
TEMPO 2606/2610 4000 -RA BKN010
BECMG 2613/2615 10008KT SCT023
BECMG 2616/2618 08008KT FEW025 RMK PEJ